Time;durP1;ratioP1;P1;durP2;ratioP2;P2;SDS_P1;SDS_P2;PMS_P1;PMS_P2;Temp;Humidity;BMP_temperature;BMP_pressure;BME280_temperature;BME280_humidity;BME280_pressure;Samples;Min_cycle;Max_cycle;Signal;HPM_P1;HPM_P2
2021/07/04 00:02:04;;;;;;;;;;;13.50;99.90;;;;;;5050509;28;19951;-50
2021/07/04 00:04:30;;;;;;;;;;;13.50;99.90;;;;;;5050320;28;19915;-52
2021/07/04 00:06:57;;;;;;;;;;;13.50;99.90;;;;;;5050757;28;20406;-50
2021/07/04 00:09:22;;;;;;;;;;;13.50;99.90;;;;;;5041346;28;19997;-55
2021/07/04 00:11:48;;;;;;;;;;;13.50;99.90;;;;;;5052090;28;20291;-53
2021/07/04 00:14:14;;;;;;;;;;;13.50;99.90;;;;;;5051136;28;19909;-52
2021/07/04 00:16:40;;;;;;;;;;;13.50;99.90;;;;;;5051754;28;19917;-55
2021/07/04 00:19:05;;;;;;;;;;;13.40;99.90;;;;;;5051937;28;20354;-52
2021/07/04 00:21:31;;;;;;;;;;;13.40;99.90;;;;;;5051848;28;19913;-52
2021/07/04 00:23:56;;;;;;;;;;;13.30;99.90;;;;;;5051913;28;19917;-50
2021/07/04 00:26:22;;;;;;;;;;;13.30;99.90;;;;;;5047730;28;19963;-48
2021/07/04 00:28:47;;;;;;;;;;;13.30;99.90;;;;;;5052101;28;19931;-52
2021/07/04 00:31:13;;;;;;;;;;;13.30;99.90;;;;;;5051550;28;19916;-51
2021/07/04 00:36:41;;;;;;;;;;;13.30;99.90;;;;;;5031501;28;20302;-53
2021/07/04 00:39:07;;;;;;;;;;;13.20;99.90;;;;;;5044510;28;19909;-48
2021/07/04 00:41:32;;;;;;;;;;;13.20;99.90;;;;;;5049940;28;19943;-49
2021/07/04 00:43:58;;;;;;;;;;;13.20;99.90;;;;;;5046727;28;20012;-50
2021/07/04 00:46:24;;;;;;;;;;;13.20;99.90;;;;;;5050300;28;19909;-46
2021/07/04 00:48:49;;;;;;;;;;;13.20;99.90;;;;;;5046110;28;19909;-48
2021/07/04 00:51:15;;;;;;;;;;;13.20;99.90;;;;;;5045235;28;19916;-50
2021/07/04 00:53:40;;;;;;;;;;;13.10;99.90;;;;;;5046749;28;19909;-53
2021/07/04 00:56:06;;;;;;;;;;;13.10;99.90;;;;;;5045901;28;19912;-52
2021/07/04 00:58:32;;;;;;;;;;;13.10;99.90;;;;;;5050365;28;19912;-49
2021/07/04 01:00:57;;;;;;;;;;;13.00;99.90;;;;;;5043294;28;19951;-48
2021/07/04 01:03:23;;;;;;;;;;;13.00;99.90;;;;;;5047629;28;20427;-50
2021/07/04 01:05:48;;;;;;;;;;;12.90;99.90;;;;;;5045263;28;19908;-56
2021/07/04 01:08:14;;;;;;;;;;;13.00;99.90;;;;;;5045335;28;19912;-48
2021/07/04 01:10:40;;;;;;;;;;;13.00;99.90;;;;;;5046687;28;20050;-48
2021/07/04 01:13:06;;;;;;;;;;;12.90;99.90;;;;;;5044769;28;20003;-51
2021/07/04 01:15:32;;;;;;;;;;;12.90;99.90;;;;;;5050786;28;19916;-49
2021/07/04 01:17:59;;;;;;;;;;;12.90;99.90;;;;;;5044674;28;19908;-51
2021/07/04 01:20:26;;;;;;;;;;;12.90;99.90;;;;;;5049155;28;19942;-57
2021/07/04 01:23:02;;;;;;;;;;;12.90;99.90;;;;;;5050737;28;19913;-51
2021/07/04 01:25:30;;;;;;;;;;;12.90;99.90;;;;;;5047603;28;20011;-50
2021/07/04 01:27:56;;;;;;;;;;;12.90;99.90;;;;;;5049896;28;19909;-50
2021/07/04 01:30:22;;;;;;;;;;;12.90;99.90;;;;;;5045307;28;20291;-49
2021/07/04 01:32:48;;;;;;;;;;;12.80;99.90;;;;;;5050403;28;19940;-49
2021/07/04 01:35:14;;;;;;;;;;;12.80;99.90;;;;;;5042394;28;19913;-50
2021/07/04 01:37:39;;;;;;;;;;;12.80;99.90;;;;;;5050007;28;19909;-52
2021/07/04 01:40:05;;;;;;;;;;;12.80;99.90;;;;;;5048498;28;19917;-49
2021/07/04 01:42:31;;;;;;;;;;;12.80;99.90;;;;;;5044397;28;19951;-50
2021/07/04 01:44:56;;;;;;;;;;;12.80;99.90;;;;;;5046774;28;19952;-49
2021/07/04 01:47:22;;;;;;;;;;;12.70;99.90;;;;;;5042749;28;19963;-52
2021/07/04 01:49:47;;;;;;;;;;;12.70;99.90;;;;;;5049565;28;19915;-53
2021/07/04 01:52:13;;;;;;;;;;;12.70;99.90;;;;;;5047333;28;20399;-50
2021/07/04 01:54:39;;;;;;;;;;;12.70;99.90;;;;;;5047816;28;19987;-49
2021/07/04 01:57:11;;;;;;;;;;;12.70;99.90;;;;;;5048138;28;20260;-54
2021/07/04 01:59:40;;;;;;;;;;;12.70;99.90;;;;;;5046399;28;19955;-48
2021/07/04 02:02:06;;;;;;;;;;;12.70;99.90;;;;;;5047928;28;19913;-53
2021/07/04 02:04:35;;;;;;;;;;;12.70;99.90;;;;;;5042515;28;20015;-49
2021/07/04 02:07:01;;;;;;;;;;;12.60;99.90;;;;;;5049929;28;19920;-51
2021/07/04 02:09:26;;;;;;;;;;;12.60;99.90;;;;;;5046440;28;19909;-49
2021/07/04 02:11:52;;;;;;;;;;;12.60;99.90;;;;;;5048602;28;19909;-55
2021/07/04 02:14:17;;;;;;;;;;;12.60;99.90;;;;;;5046203;28;20483;-49
2021/07/04 02:16:43;;;;;;;;;;;12.60;99.90;;;;;;5046631;28;19916;-53
2021/07/04 02:19:08;;;;;;;;;;;12.60;99.90;;;;;;5046229;28;19916;-53
2021/07/04 02:21:34;;;;;;;;;;;12.50;99.90;;;;;;5044006;28;20264;-50
2021/07/04 02:23:59;;;;;;;;;;;12.60;99.90;;;;;;5049456;28;20027;-49
2021/07/04 02:26:24;;;;;;;;;;;12.60;99.90;;;;;;5045530;28;19909;-55
2021/07/04 02:28:50;;;;;;;;;;;12.60;99.90;;;;;;5048596;28;19917;-52
2021/07/04 02:31:15;;;;;;;;;;;12.50;99.90;;;;;;5046286;28;20352;-52
2021/07/04 02:33:41;;;;;;;;;;;12.50;99.90;;;;;;5046377;28;19913;-55
2021/07/04 02:36:06;;;;;;;;;;;12.50;99.90;;;;;;5047496;28;19917;-49
2021/07/04 02:38:32;;;;;;;;;;;12.50;99.90;;;;;;5043940;28;19970;-53
2021/07/04 02:40:57;;;;;;;;;;;12.50;99.90;;;;;;5048850;28;20012;-53
2021/07/04 02:43:24;;;;;;;;;;;12.40;99.90;;;;;;5043639;28;20507;-48
2021/07/04 02:45:50;;;;;;;;;;;12.40;99.90;;;;;;5049361;28;20294;-54
2021/07/04 02:48:16;;;;;;;;;;;12.50;99.90;;;;;;5043189;28;19916;-50
2021/07/04 02:50:42;;;;;;;;;;;12.50;99.90;;;;;;5052728;28;19912;-54
2021/07/04 02:53:09;;;;;;;;;;;12.50;99.90;;;;;;5049748;28;19935;-54
2021/07/04 02:55:35;;;;;;;;;;;12.50;99.90;;;;;;5051958;28;20467;-52
2021/07/04 02:58:00;;;;;;;;;;;12.50;99.90;;;;;;5049016;28;19909;-49
2021/07/04 03:00:27;;;;;;;;;;;12.50;99.90;;;;;;5051049;28;19912;-51
2021/07/04 03:02:53;;;;;;;;;;;12.50;99.90;;;;;;5047817;28;20415;-53
2021/07/04 03:05:19;;;;;;;;;;;12.50;99.90;;;;;;5050317;28;19909;-52
2021/07/04 03:07:44;;;;;;;;;;;12.50;99.90;;;;;;5051773;28;19970;-49
2021/07/04 03:10:12;;;;;;;;;;;12.50;99.90;;;;;;5049412;28;20443;-54
2021/07/04 03:12:37;;;;;;;;;;;12.50;99.90;;;;;;5051767;28;19916;-50
2021/07/04 03:15:04;;;;;;;;;;;12.40;99.90;;;;;;5047861;28;19908;-50
2021/07/04 03:17:29;;;;;;;;;;;12.40;99.90;;;;;;5049609;28;19920;-52
2021/07/04 03:19:55;;;;;;;;;;;12.40;99.90;;;;;;5047120;28;19913;-50
2021/07/04 03:22:20;;;;;;;;;;;12.40;99.90;;;;;;5050025;28;19992;-58
2021/07/04 03:24:46;;;;;;;;;;;12.40;99.90;;;;;;5051962;28;20291;-54
2021/07/04 03:27:11;;;;;;;;;;;12.40;99.90;;;;;;5049056;28;20127;-52
2021/07/04 03:29:37;;;;;;;;;;;12.40;99.90;;;;;;5051252;28;19966;-52
2021/07/04 03:32:03;;;;;;;;;;;12.40;99.90;;;;;;5048088;28;19909;-49
2021/07/04 03:34:29;;;;;;;;;;;12.40;99.90;;;;;;5050434;28;20379;-57
2021/07/04 03:36:54;;;;;;;;;;;12.40;99.90;;;;;;5047206;28;19916;-49
2021/07/04 03:39:19;;;;;;;;;;;12.50;99.90;;;;;;5049744;28;19909;-49
2021/07/04 03:41:45;;;;;;;;;;;12.50;99.90;;;;;;5051799;28;19970;-52
2021/07/04 03:44:10;;;;;;;;;;;12.50;99.90;;;;;;5046194;28;19917;-49
2021/07/04 03:46:36;;;;;;;;;;;12.50;99.90;;;;;;5047036;28;19908;-54
2021/07/04 03:49:02;;;;;;;;;;;12.50;99.90;;;;;;5048720;28;19956;-49
2021/07/04 03:51:27;;;;;;;;;;;12.50;99.90;;;;;;5051194;28;19916;-51
2021/07/04 03:53:53;;;;;;;;;;;12.50;99.90;;;;;;5048122;28;19912;-49
2021/07/04 03:56:18;;;;;;;;;;;12.50;99.90;;;;;;5051157;28;19912;-53
2021/07/04 03:58:44;;;;;;;;;;;12.50;99.90;;;;;;5047633;28;19909;-50
2021/07/04 04:01:17;;;;;;;;;;;12.60;99.90;;;;;;5049186;28;20267;-53
2021/07/04 04:03:43;;;;;;;;;;;12.60;99.90;;;;;;5047097;28;19995;-51
2021/07/04 04:06:08;;;;;;;;;;;12.60;99.90;;;;;;5048466;28;19948;-49
2021/07/04 04:08:34;;;;;;;;;;;12.60;99.90;;;;;;5052195;28;19909;-54
2021/07/04 04:10:59;;;;;;;;;;;12.60;99.90;;;;;;5048261;28;20390;-48
2021/07/04 04:13:25;;;;;;;;;;;12.70;99.90;;;;;;5045140;28;19921;-52
2021/07/04 04:15:50;;;;;;;;;;;12.70;99.90;;;;;;5046763;28;19917;-55
2021/07/04 04:18:18;;;;;;;;;;;12.70;99.90;;;;;;5049739;28;19916;-51
2021/07/04 04:20:43;;;;;;;;;;;12.80;99.90;;;;;;5046395;28;20344;-50
2021/07/04 04:23:09;;;;;;;;;;;12.80;99.90;;;;;;5047857;28;19963;-49
2021/07/04 04:25:35;;;;;;;;;;;12.80;99.90;;;;;;5051684;28;19909;-58
2021/07/04 04:28:04;;;;;;;;;;;12.90;99.90;;;;;;5046468;28;19956;-55
2021/07/04 04:30:31;;;;;;;;;;;12.90;99.90;;;;;;5051936;28;19916;-51
2021/07/04 04:32:56;;;;;;;;;;;13.00;99.90;;;;;;5046274;28;20691;-49
2021/07/04 04:35:22;;;;;;;;;;;13.00;99.90;;;;;;5050001;28;20000;-49
2021/07/04 04:37:47;;;;;;;;;;;13.00;99.90;;;;;;5046118;28;19909;-49
2021/07/04 04:40:13;;;;;;;;;;;13.10;99.90;;;;;;5047235;28;20007;-55
2021/07/04 04:42:38;;;;;;;;;;;13.20;99.90;;;;;;5046933;28;19909;-51
2021/07/04 04:45:04;;;;;;;;;;;13.20;99.90;;;;;;5047569;28;19916;-52
2021/07/04 04:47:29;;;;;;;;;;;13.30;99.90;;;;;;5044979;28;19920;-50
2021/07/04 04:49:55;;;;;;;;;;;13.40;99.90;;;;;;5042730;28;19909;-54
2021/07/04 04:52:20;;;;;;;;;;;13.50;99.90;;;;;;5047483;28;19931;-54
2021/07/04 04:54:46;;;;;;;;;;;13.50;99.90;;;;;;5049642;28;19909;-54
2021/07/04 04:57:11;;;;;;;;;;;13.60;99.90;;;;;;5048124;28;19925;-53
2021/07/04 04:59:37;;;;;;;;;;;13.60;99.90;;;;;;5047465;28;19931;-52
2021/07/04 05:02:03;;;;;;;;;;;13.70;99.90;;;;;;5049479;28;19935;-49
2021/07/04 05:04:29;;;;;;;;;;;13.80;99.90;;;;;;5044503;28;19913;-61
2021/07/04 05:06:54;;;;;;;;;;;13.80;99.90;;;;;;5050702;28;20007;-51
2021/07/04 05:09:20;;;;;;;;;;;13.90;99.90;;;;;;5046994;28;20371;-54
2021/07/04 05:11:45;;;;;;;;;;;14.00;99.90;;;;;;5048669;28;19930;-50
2021/07/04 05:14:13;;;;;;;;;;;14.00;99.90;;;;;;5047878;28;19967;-51
2021/07/04 05:16:39;;;;;;;;;;;14.20;99.90;;;;;;5046950;28;20003;-52
2021/07/04 05:19:07;;;;;;;;;;;14.20;99.90;;;;;;5048785;28;19964;-54
2021/07/04 05:21:33;;;;;;;;;;;14.30;99.90;;;;;;5044752;28;19979;-49
2021/07/04 05:24:03;;;;;;;;;;;14.50;99.90;;;;;;5050160;28;19909;-49
2021/07/04 05:26:28;;;;;;;;;;;14.60;99.90;;;;;;5046476;28;19917;-52
2021/07/04 05:28:55;;;;;;;;;;;14.70;99.90;;;;;;5049446;28;19908;-53
2021/07/04 05:31:21;;;;;;;;;;;14.80;99.90;;;;;;5045403;28;20036;-52
2021/07/04 05:33:47;;;;;;;;;;;14.90;99.90;;;;;;5048015;28;20386;-52
2021/07/04 05:36:12;;;;;;;;;;;15.00;99.90;;;;;;5047355;28;19913;-52
2021/07/04 05:38:40;;;;;;;;;;;15.20;99.90;;;;;;5044934;28;20000;-49
2021/07/04 05:41:06;;;;;;;;;;;15.30;99.90;;;;;;5064564;22;20015;-61
2021/07/04 05:43:31;;;;;;;;;;;15.40;99.90;;;;;;5070683;28;20455;-60
2021/07/04 05:45:57;;;;;;;;;;;15.60;99.90;;;;;;5070080;28;19916;-60
2021/07/04 05:48:23;;;;;;;;;;;15.70;99.90;;;;;;5070735;28;20004;-60
2021/07/04 05:50:48;;;;;;;;;;;15.90;99.90;;;;;;5070277;28;20050;-60
2021/07/04 05:53:15;;;;;;;;;;;16.10;99.90;;;;;;5070727;28;19913;-60
2021/07/04 05:55:40;;;;;;;;;;;16.30;99.90;;;;;;5070433;28;19915;-58
2021/07/04 05:58:06;;;;;;;;;;;16.40;99.90;;;;;;5070345;28;19912;-59
2021/07/04 06:00:31;;;;;;;;;;;16.60;99.90;;;;;;5070741;28;20003;-60
2021/07/04 06:02:57;;;;;;;;;;;16.80;99.90;;;;;;5070681;28;20485;-55
2021/07/04 06:05:23;;;;;;;;;;;17.00;99.90;;;;;;5070397;28;19909;-56
2021/07/04 06:07:48;;;;;;;;;;;17.20;99.90;;;;;;5070415;28;20286;-59
2021/07/04 06:10:14;;;;;;;;;;;17.40;99.90;;;;;;5052505;28;20401;-56
2021/07/04 06:12:39;;;;;;;;;;;17.50;99.90;;;;;;5070681;28;19908;-60
2021/07/04 06:15:06;;;;;;;;;;;17.70;99.90;;;;;;5070026;28;19920;-59
2021/07/04 06:17:31;;;;;;;;;;;17.90;99.90;;;;;;5070478;28;19912;-60
2021/07/04 06:19:57;;;;;;;;;;;18.00;99.90;;;;;;5070362;28;19914;-57
2021/07/04 06:22:22;;;;;;;;;;;18.20;99.90;;;;;;5070207;28;19944;-58
2021/07/04 06:24:47;;;;;;;;;;;18.40;99.90;;;;;;5073767;28;19916;-58
2021/07/04 06:27:13;;;;;;;;;;;18.60;99.90;;;;;;5074401;28;19934;-59
2021/07/04 06:29:39;;;;;;;;;;;18.80;99.90;;;;;;5074574;28;19916;-61
2021/07/04 06:32:04;;;;;;;;;;;19.00;99.90;;;;;;5074557;28;19919;-59
2021/07/04 06:34:30;;;;;;;;;;;19.20;99.90;;;;;;5073888;28;20378;-59
2021/07/04 06:36:55;;;;;;;;;;;19.40;99.90;;;;;;5073833;28;19912;-58
2021/07/04 06:39:21;;;;;;;;;;;19.60;99.90;;;;;;5074331;28;19948;-61
2021/07/04 06:41:46;;;;;;;;;;;19.70;99.90;;;;;;5049462;28;19920;-59
2021/07/04 06:44:12;;;;;;;;;;;19.90;99.90;;;;;;5073887;28;20547;-57
2021/07/04 06:46:37;;;;;;;;;;;20.10;99.90;;;;;;5073799;28;19908;-57
2021/07/04 06:49:03;;;;;;;;;;;20.30;99.90;;;;;;5073442;28;20003;-57
2021/07/04 06:51:28;;;;;;;;;;;20.50;99.90;;;;;;5073765;28;19909;-60
2021/07/04 06:53:54;;;;;;;;;;;20.60;99.90;;;;;;5073793;28;19908;-56
2021/07/04 06:56:20;;;;;;;;;;;20.80;99.90;;;;;;5073702;28;19912;-60
2021/07/04 06:58:46;;;;;;;;;;;21.00;99.90;;;;;;5074348;28;19908;-58
2021/07/04 07:01:13;;;;;;;;;;;21.20;99.90;;;;;;5073641;28;19932;-58
2021/07/04 07:03:38;;;;;;;;;;;21.30;99.90;;;;;;5073706;28;19919;-59
2021/07/04 07:06:04;;;;;;;;;;;21.50;99.90;;;;;;5073111;28;19909;-60
2021/07/04 07:08:29;;;;;;;;;;;21.60;99.90;;;;;;5073766;28;19913;-56
2021/07/04 07:10:55;;;;;;;;;;;21.80;99.90;;;;;;5073418;28;20329;-60
2021/07/04 07:13:20;;;;;;;;;;;21.90;99.90;;;;;;5073574;28;19999;-61
2021/07/04 07:15:46;;;;;;;;;;;22.00;99.90;;;;;;5073310;28;20363;-58
2021/07/04 07:18:12;;;;;;;;;;;22.10;99.90;;;;;;5073226;28;19960;-61
2021/07/04 07:20:38;;;;;;;;;;;22.30;99.90;;;;;;5048672;28;19908;-60
2021/07/04 07:23:04;;;;;;;;;;;22.40;99.90;;;;;;5071531;28;19908;-59
2021/07/04 07:25:31;;;;;;;;;;;22.60;99.90;;;;;;5073248;28;19915;-60
2021/07/04 07:27:56;;;;;;;;;;;22.80;99.90;;;;;;5073633;28;19913;-61
2021/07/04 07:30:22;;;;;;;;;;;23.10;99.90;;;;;;5073131;28;19909;-59
2021/07/04 07:32:48;;;;;;;;;;;23.20;99.90;;;;;;5047145;28;20116;-58
2021/07/04 07:35:13;;;;;;;;;;;23.40;99.90;;;;;;5071274;28;19955;-59
2021/07/04 07:37:39;;;;;;;;;;;23.60;99.90;;;;;;5073240;28;20372;-60
2021/07/04 07:40:05;;;;;;;;;;;23.80;99.90;;;;;;5072768;28;19919;-61
2021/07/04 07:42:31;;;;;;;;;;;24.00;99.90;;;;;;5072940;28;20020;-58
2021/07/04 07:44:56;;;;;;;;;;;24.10;99.90;;;;;;5054486;28;19981;-61
2021/07/04 07:47:22;;;;;;;;;;;24.20;99.90;;;;;;5054882;28;19908;-62
2021/07/04 07:49:47;;;;;;;;;;;24.30;99.90;;;;;;5072314;28;19909;-60
2021/07/04 07:52:13;;;;;;;;;;;24.50;99.90;;;;;;5072727;28;19912;-57
2021/07/04 07:54:39;;;;;;;;;;;24.60;99.90;;;;;;5072601;28;20040;-61
2021/07/04 07:57:07;;;;;;;;;;;24.70;99.70;;;;;;5072877;28;19998;-60
2021/07/04 07:59:32;;;;;;;;;;;24.80;99.90;;;;;;5072756;28;20408;-60
2021/07/04 08:01:58;;;;;;;;;;;24.90;99.90;;;;;;5072363;28;19944;-60
2021/07/04 08:04:23;;;;;;;;;;;24.90;99.90;;;;;;5072211;28;19916;-58
2021/07/04 08:06:49;;;;;;;;;;;25.10;98.90;;;;;;5072429;28;19962;-58
2021/07/04 08:09:14;;;;;;;;;;;25.20;99.90;;;;;;5054424;28;19966;-58
2021/07/04 08:11:40;;;;;;;;;;;25.40;97.90;;;;;;5072349;28;19908;-58
2021/07/04 08:14:06;;;;;;;;;;;25.50;99.90;;;;;;5054525;28;19991;-60
2021/07/04 08:16:31;;;;;;;;;;;25.70;99.10;;;;;;5072025;28;20019;-58
2021/07/04 08:18:57;;;;;;;;;;;25.90;98.00;;;;;;5072307;28;20154;-59
2021/07/04 08:21:22;;;;;;;;;;;26.00;96.70;;;;;;5071985;28;19908;-61
2021/07/04 08:23:48;;;;;;;;;;;26.00;96.10;;;;;;5072295;28;19995;-58
2021/07/04 08:26:14;;;;;;;;;;;26.10;95.80;;;;;;5072161;28;19908;-60
2021/07/04 08:28:39;;;;;;;;;;;26.10;96.60;;;;;;5072419;28;19909;-61
2021/07/04 08:31:05;;;;;;;;;;;26.20;97.40;;;;;;5072009;28;19935;-57
2021/07/04 08:33:30;;;;;;;;;;;26.20;96.20;;;;;;5071913;28;19962;-60
2021/07/04 08:35:56;;;;;;;;;;;26.20;98.00;;;;;;5071580;28;20009;-57
2021/07/04 08:38:21;;;;;;;;;;;26.20;98.70;;;;;;5071934;28;19908;-60
2021/07/04 08:40:49;;;;;;;;;;;26.30;96.30;;;;;;5071425;28;19977;-60
2021/07/04 08:43:27;;;;;;;;;;;26.30;95.60;;;;;;5053735;28;19915;-59
2021/07/04 08:45:53;;;;;;;;;;;26.30;97.50;;;;;;5071231;28;19915;-60
2021/07/04 08:48:19;;;;;;;;;;;26.30;96.10;;;;;;5071792;28;19913;-60
2021/07/04 08:50:44;;;;;;;;;;;26.30;97.10;;;;;;5070532;28;20464;-58
2021/07/04 08:53:10;;;;;;;;;;;26.30;98.00;;;;;;5071405;28;19916;-61
2021/07/04 08:55:35;;;;;;;;;;;26.20;95.60;;;;;;5047443;28;19909;-59
2021/07/04 08:58:00;;;;;;;;;;;26.30;97.30;;;;;;5070744;28;20423;-60
2021/07/04 09:00:26;;;;;;;;;;;26.30;97.50;;;;;;5071377;28;19909;-60
2021/07/04 09:02:52;;;;;;;;;;;26.30;96.80;;;;;;5070905;28;20003;-58
2021/07/04 09:05:18;;;;;;;;;;;26.30;95.40;;;;;;5071010;28;19908;-59
2021/07/04 09:07:45;;;;;;;;;;;26.30;96.90;;;;;;5071270;28;19908;-59
2021/07/04 09:10:12;;;;;;;;;;;26.40;94.60;;;;;;5071083;28;19917;-58
2021/07/04 09:12:39;;;;;;;;;;;26.50;94.00;;;;;;5071339;28;19953;-61
2021/07/04 09:15:09;;;;;;;;;;;26.60;93.80;;;;;;5070742;28;19981;-60
2021/07/04 09:17:36;;;;;;;;;;;26.80;94.40;;;;;;5071256;28;19960;-59
2021/07/04 09:20:03;;;;;;;;;;;26.90;93.70;;;;;;5070952;28;19908;-55
2021/07/04 09:22:31;;;;;;;;;;;27.20;93.20;;;;;;5071003;28;19963;-59
2021/07/04 09:25:09;;;;;;;;;;;27.20;93.00;;;;;;5046553;28;20328;-61
2021/07/04 09:27:35;;;;;;;;;;;27.30;91.60;;;;;;5071472;28;20424;-61
2021/07/04 09:30:00;;;;;;;;;;;27.40;93.90;;;;;;5070793;28;19909;-61
2021/07/04 09:32:27;;;;;;;;;;;27.70;94.30;;;;;;5071225;28;20374;-60
2021/07/04 09:34:55;;;;;;;;;;;27.80;93.80;;;;;;5070234;28;20061;-58
2021/07/04 09:37:37;;;;;;;;;;;27.80;92.40;;;;;;5070924;28;20415;-60
2021/07/04 09:40:15;;;;;;;;;;;27.60;92.00;;;;;;5070774;28;20325;-60
2021/07/04 09:42:53;;;;;;;;;;;27.30;90.10;;;;;;5070645;28;20439;-55
2021/07/04 09:45:19;;;;;;;;;;;27.10;91.20;;;;;;5063138;28;19908;-60
2021/07/04 09:47:49;;;;;;;;;;;27.00;90.30;;;;;;5070516;28;19915;-60
2021/07/04 09:50:15;;;;;;;;;;;26.90;91.20;;;;;;5061781;28;19947;-59
2021/07/04 09:52:53;;;;;;;;;;;26.80;91.00;;;;;;5070564;28;19947;-57
2021/07/04 09:55:22;;;;;;;;;;;26.80;91.90;;;;;;5062866;28;20717;-57
2021/07/04 09:57:57;;;;;;;;;;;26.80;92.80;;;;;;5069966;28;19948;-58
2021/07/04 10:00:25;;;;;;;;;;;26.70;92.70;;;;;;5063236;28;19909;-60
2021/07/04 10:03:04;;;;;;;;;;;26.70;93.30;;;;;;5070389;28;20425;-59
2021/07/04 10:05:29;;;;;;;;;;;26.70;92.10;;;;;;5070073;28;19913;-56
2021/07/04 10:07:55;;;;;;;;;;;26.70;92.70;;;;;;5070256;28;20031;-61
2021/07/04 10:10:21;;;;;;;;;;;26.80;91.60;;;;;;5070378;28;19908;-58
2021/07/04 10:12:46;;;;;;;;;;;26.80;93.50;;;;;;5070296;28;20088;-57
2021/07/04 10:15:12;;;;;;;;;;;26.90;94.20;;;;;;5069978;28;19951;-59
2021/07/04 10:17:38;;;;;;;;;;;27.00;92.90;;;;;;5070438;28;20031;-55
2021/07/04 10:20:04;;;;;;;;;;;27.00;94.60;;;;;;5070070;28;19949;-59
2021/07/04 10:22:36;;;;;;;;;;;27.30;93.60;;;;;;5070307;28;19963;-58
2021/07/04 10:25:06;;;;;;;;;;;27.40;91.50;;;;;;5070080;28;19908;-57
2021/07/04 10:27:33;;;;;;;;;;;27.80;92.40;;;;;;5070698;28;19957;-57
2021/07/04 10:29:59;;;;;;;;;;;27.80;92.80;;;;;;5070241;28;20284;-55
2021/07/04 10:32:24;;;;;;;;;;;28.10;93.60;;;;;;5070151;28;19913;-60
2021/07/04 10:34:50;;;;;;;;;;;28.10;90.50;;;;;;5069446;28;19912;-58
2021/07/04 10:37:28;;;;;;;;;;;28.30;90.70;;;;;;5070279;28;19917;-58
2021/07/04 10:40:08;;;;;;;;;;;28.40;90.80;;;;;;5070234;28;19908;-58
2021/07/04 10:42:37;;;;;;;;;;;28.50;90.00;;;;;;5062778;28;20405;-59
2021/07/04 10:45:03;;;;;;;;;;;28.50;85.00;;;;;;5068298;28;20412;-58
2021/07/04 10:47:35;;;;;;;;;;;28.50;90.20;;;;;;5068536;28;20394;-60
2021/07/04 10:50:12;;;;;;;;;;;28.30;89.10;;;;;;5068497;28;19962;-59
2021/07/04 10:52:39;;;;;;;;;;;28.20;89.60;;;;;;5069297;28;19970;-58
2021/07/04 10:55:07;;;;;;;;;;;28.10;88.10;;;;;;5069085;28;19919;-60
2021/07/04 10:57:32;;;;;;;;;;;27.90;87.60;;;;;;5068716;28;19916;-58
2021/07/04 11:00:01;;;;;;;;;;;27.60;89.90;;;;;;5069060;28;20007;-58
2021/07/04 11:02:45;;;;;;;;;;;27.70;89.80;;;;;;5068987;28;19908;-58
2021/07/04 11:05:12;;;;;;;;;;;27.60;91.20;;;;;;5067994;28;20460;-59
2021/07/04 11:07:53;;;;;;;;;;;27.50;87.80;;;;;;5068796;28;20362;-58
2021/07/04 11:10:24;;;;;;;;;;;27.40;90.80;;;;;;5063683;28;19915;-58
2021/07/04 11:12:51;;;;;;;;;;;27.30;90.90;;;;;;5072179;28;19916;-60
2021/07/04 11:15:19;;;;;;;;;;;27.30;89.40;;;;;;5071897;28;19951;-57
2021/07/04 11:17:57;;;;;;;;;;;27.20;89.90;;;;;;5072414;28;20047;-56
2021/07/04 11:20:23;;;;;;;;;;;27.10;91.10;;;;;;5072348;28;19909;-56
2021/07/04 11:23:03;;;;;;;;;;;27.00;90.70;;;;;;5072557;28;19909;-56
2021/07/04 11:25:48;;;;;;;;;;;27.00;88.30;;;;;;5065827;28;19921;-57
2021/07/04 11:28:17;;;;;;;;;;;26.90;90.20;;;;;;5071803;28;19908;-59
2021/07/04 11:30:46;;;;;;;;;;;26.90;90.70;;;;;;5072078;28;19908;-59
2021/07/04 11:33:28;;;;;;;;;;;26.90;91.90;;;;;;5071797;28;19908;-58
2021/07/04 11:36:00;;;;;;;;;;;27.00;91.80;;;;;;5071714;28;19908;-59
2021/07/04 11:38:27;;;;;;;;;;;27.10;91.00;;;;;;5071982;28;20389;-59
2021/07/04 11:40:53;;;;;;;;;;;27.10;90.70;;;;;;5009785;28;1747671;-58
2021/07/04 11:43:23;;;;;;;;;;;27.20;90.60;;;;;;5086976;22;19959;-49
2021/07/04 11:45:50;;;;;;;;;;;27.20;91.90;;;;;;5066726;28;19916;-54
2021/07/04 11:48:15;;;;;;;;;;;27.20;90.20;;;;;;5064512;28;20007;-53
2021/07/04 11:50:48;;;;;;;;;;;27.10;91.00;;;;;;5072019;28;20043;-52
2021/07/04 11:53:14;;;;;;;;;;;27.10;91.70;;;;;;5068956;28;19908;-55
2021/07/04 11:56:02;;;;;;;;;;;27.20;89.00;;;;;;5071008;28;19991;-55
2021/07/04 11:58:29;;;;;;;;;;;27.10;89.20;;;;;;5067768;28;20402;-53
2021/07/04 12:00:55;;;;;;;;;;;27.00;91.10;;;;;;5069999;28;19916;-54
2021/07/04 12:03:22;;;;;;;;;;;27.00;91.40;;;;;;5066742;28;19909;-58
2021/07/04 12:05:47;;;;;;;;;;;26.90;91.10;;;;;;5069400;28;20308;-49
2021/07/04 12:08:13;;;;;;;;;;;27.00;91.20;;;;;;5071579;28;19909;-50
2021/07/04 12:10:52;;;;;;;;;;;27.10;91.60;;;;;;5068521;28;19908;-56
2021/07/04 12:13:18;;;;;;;;;;;27.10;91.70;;;;;;5070951;28;20405;-52
2021/07/04 12:15:48;;;;;;;;;;;27.20;90.20;;;;;;5067278;28;19954;-55
2021/07/04 12:18:15;;;;;;;;;;;27.10;90.20;;;;;;5069810;28;20378;-54
2021/07/04 12:20:41;;;;;;;;;;;27.20;91.30;;;;;;5066321;28;19909;-50
2021/07/04 12:23:09;;;;;;;;;;;27.30;91.30;;;;;;5046108;28;19909;-52
2021/07/04 12:25:42;;;;;;;;;;;27.30;92.00;;;;;;5071835;28;19908;-51
2021/07/04 12:28:08;;;;;;;;;;;27.30;92.10;;;;;;5066629;28;20333;-53
2021/07/04 12:30:35;;;;;;;;;;;27.20;92.10;;;;;;5071967;28;19909;-54
2021/07/04 12:33:06;;;;;;;;;;;27.30;91.80;;;;;;5065568;28;19908;-53
2021/07/04 12:35:34;;;;;;;;;;;27.30;90.40;;;;;;5065540;28;19915;-57
2021/07/04 12:38:01;;;;;;;;;;;27.40;87.70;;;;;;5064661;28;19924;-50
2021/07/04 12:40:31;;;;;;;;;;;27.40;90.20;;;;;;5071524;28;19909;-55
2021/07/04 12:43:09;;;;;;;;;;;27.30;88.40;;;;;;5070558;28;19916;-56
2021/07/04 12:45:35;;;;;;;;;;;27.20;89.00;;;;;;5067704;28;19916;-51
2021/07/04 12:48:02;;;;;;;;;;;27.20;90.00;;;;;;5065253;28;20379;-53
2021/07/04 12:50:57;;;;;;;;;;;27.10;89.10;;;;;;5070690;28;19912;-54
2021/07/04 12:53:42;;;;;;;;;;;27.10;89.90;;;;;;5045527;28;19913;-50
2021/07/04 12:56:24;;;;;;;;;;;27.20;87.30;;;;;;5068851;28;19928;-53
2021/07/04 12:58:52;;;;;;;;;;;27.30;88.00;;;;;;5065812;28;19908;-58
2021/07/04 13:01:17;;;;;;;;;;;27.60;85.70;;;;;;5067365;28;19912;-51
2021/07/04 13:03:46;;;;;;;;;;;27.70;89.00;;;;;;5071173;28;19919;-53
2021/07/04 13:06:31;;;;;;;;;;;27.80;89.30;;;;;;5065130;28;19978;-54
2021/07/04 13:08:57;;;;;;;;;;;27.90;90.10;;;;;;5070236;28;19920;-56
2021/07/04 13:11:22;;;;;;;;;;;27.90;89.80;;;;;;5064837;28;19909;-54
2021/07/04 13:14:14;;;;;;;;;;;27.90;87.70;;;;;;5070921;28;19908;-52
2021/07/04 13:16:50;;;;;;;;;;;27.80;86.80;;;;;;5061917;28;19912;-53
2021/07/04 13:19:23;;;;;;;;;;;27.90;87.50;;;;;;5062973;28;19908;-51
2021/07/04 13:21:49;;;;;;;;;;;27.70;87.40;;;;;;5066231;28;19961;-53
2021/07/04 13:24:23;;;;;;;;;;;27.70;85.60;;;;;;5069119;28;19999;-52
2021/07/04 13:26:51;;;;;;;;;;;27.70;87.90;;;;;;5065312;28;19909;-58
2021/07/04 13:29:18;;;;;;;;;;;27.60;88.00;;;;;;5062987;28;19909;-51
2021/07/04 13:31:43;;;;;;;;;;;27.60;85.80;;;;;;5069770;28;19908;-52
2021/07/04 13:34:27;;;;;;;;;;;27.40;88.20;;;;;;5065992;28;20045;-57
2021/07/04 13:36:54;;;;;;;;;;;27.30;89.70;;;;;;5069097;28;19916;-55
2021/07/04 13:39:19;;;;;;;;;;;27.20;88.10;;;;;;5066163;28;19908;-57
2021/07/04 13:41:45;;;;;;;;;;;27.20;88.00;;;;;;5068134;28;19915;-51
2021/07/04 13:44:10;;;;;;;;;;;27.10;88.70;;;;;;5064750;28;20321;-51
2021/07/04 13:46:36;;;;;;;;;;;27.00;89.60;;;;;;5052306;28;19908;-56
2021/07/04 13:49:02;;;;;;;;;;;26.90;87.30;;;;;;5069427;28;19912;-52
2021/07/04 13:51:27;;;;;;;;;;;26.90;89.40;;;;;;5065798;28;19958;-54
2021/07/04 13:53:53;;;;;;;;;;;27.00;90.10;;;;;;5068164;28;20415;-49
2021/07/04 13:56:18;;;;;;;;;;;27.00;90.40;;;;;;5064644;28;19912;-53
2021/07/04 13:58:43;;;;;;;;;;;27.00;88.80;;;;;;5067103;28;19909;-54
2021/07/04 14:01:09;;;;;;;;;;;27.00;88.50;;;;;;5070231;28;20794;-53
2021/07/04 14:03:34;;;;;;;;;;;27.00;87.60;;;;;;5066081;28;19987;-51
2021/07/04 14:06:00;;;;;;;;;;;26.80;88.40;;;;;;5068279;28;19931;-52
2021/07/04 14:08:26;;;;;;;;;;;26.80;88.10;;;;;;5065376;28;20411;-51
2021/07/04 14:10:51;;;;;;;;;;;26.80;90.50;;;;;;5067500;28;19908;-52
2021/07/04 14:13:17;;;;;;;;;;;26.80;87.30;;;;;;5064421;28;19919;-52
2021/07/04 14:15:42;;;;;;;;;;;26.70;87.00;;;;;;5066697;28;19909;-52
2021/07/04 14:18:08;;;;;;;;;;;26.60;87.50;;;;;;5069233;28;20405;-56
2021/07/04 14:20:33;;;;;;;;;;;26.60;87.30;;;;;;5066400;28;20006;-51